sensor_id;sensor_type;location;lat;lon;timestamp;temperature;humidity
67862;DHT22;54665;51.462;6.698;2023-07-22T00:01:55;13.55;80.52
67862;DHT22;54665;51.462;6.698;2023-07-22T00:03:56;13.55;80.36
67862;DHT22;54665;51.462;6.698;2023-07-22T00:06:06;13.60;80.85
67862;DHT22;54665;51.462;6.698;2023-07-22T00:08:06;13.64;80.30
67862;DHT22;54665;51.462;6.698;2023-07-22T00:10:07;13.67;80.07
67862;DHT22;54665;51.462;6.698;2023-07-22T00:12:08;13.65;79.54
67862;DHT22;54665;51.462;6.698;2023-07-22T00:14:08;13.72;80.08
67862;DHT22;54665;51.462;6.698;2023-07-22T00:16:09;13.72;79.74
67862;DHT22;54665;51.462;6.698;2023-07-22T00:18:09;13.75;79.45
67862;DHT22;54665;51.462;6.698;2023-07-22T00:20:10;13.77;80.08
67862;DHT22;54665;51.462;6.698;2023-07-22T00:22:10;13.75;79.23
67862;DHT22;54665;51.462;6.698;2023-07-22T00:24:10;13.78;79.11
67862;DHT22;54665;51.462;6.698;2023-07-22T00:26:10;13.79;79.36
67862;DHT22;54665;51.462;6.698;2023-07-22T00:28:11;13.78;79.13
67862;DHT22;54665;51.462;6.698;2023-07-22T00:30:12;13.75;79.39
67862;DHT22;54665;51.462;6.698;2023-07-22T00:32:13;13.75;79.80
67862;DHT22;54665;51.462;6.698;2023-07-22T00:34:13;13.74;79.48
67862;DHT22;54665;51.462;6.698;2023-07-22T00:36:13;13.74;79.61
67862;DHT22;54665;51.462;6.698;2023-07-22T00:38:14;13.77;80.07
67862;DHT22;54665;51.462;6.698;2023-07-22T00:40:14;13.75;79.82
67862;DHT22;54665;51.462;6.698;2023-07-22T00:42:15;13.79;80.36
67862;DHT22;54665;51.462;6.698;2023-07-22T00:44:15;13.79;80.25
67862;DHT22;54665;51.462;6.698;2023-07-22T00:46:15;13.81;80.35
67862;DHT22;54665;51.462;6.698;2023-07-22T00:48:16;13.79;80.18
67862;DHT22;54665;51.462;6.698;2023-07-22T00:50:16;13.79;80.38
67862;DHT22;54665;51.462;6.698;2023-07-22T00:52:17;13.77;80.21
67862;DHT22;54665;51.462;6.698;2023-07-22T00:54:17;13.79;80.69
67862;DHT22;54665;51.462;6.698;2023-07-22T00:56:17;13.77;80.74
67862;DHT22;54665;51.462;6.698;2023-07-22T00:58:18;13.75;80.62
67862;DHT22;54665;51.462;6.698;2023-07-22T01:00:18;13.75;80.92
67862;DHT22;54665;51.462;6.698;2023-07-22T01:02:19;13.77;80.84
67862;DHT22;54665;51.462;6.698;2023-07-22T01:04:19;13.75;80.73
67862;DHT22;54665;51.462;6.698;2023-07-22T01:06:20;13.74;80.88
67862;DHT22;54665;51.462;6.698;2023-07-22T01:08:20;13.71;80.81
67862;DHT22;54665;51.462;6.698;2023-07-22T01:10:21;13.71;81.12
67862;DHT22;54665;51.462;6.698;2023-07-22T01:12:22;13.71;80.99
67862;DHT22;54665;51.462;6.698;2023-07-22T01:14:22;13.72;80.94
67862;DHT22;54665;51.462;6.698;2023-07-22T01:16:22;13.74;81.02
67862;DHT22;54665;51.462;6.698;2023-07-22T01:18:23;13.77;81.25
67862;DHT22;54665;51.462;6.698;2023-07-22T01:20:23;13.81;81.27
67862;DHT22;54665;51.462;6.698;2023-07-22T01:22:24;13.72;81.11
67862;DHT22;54665;51.462;6.698;2023-07-22T01:24:24;13.74;81.19
67862;DHT22;54665;51.462;6.698;2023-07-22T01:26:26;13.78;81.46
67862;DHT22;54665;51.462;6.698;2023-07-22T01:28:26;13.77;81.22
67862;DHT22;54665;51.462;6.698;2023-07-22T01:30:26;13.78;81.35
67862;DHT22;54665;51.462;6.698;2023-07-22T01:32:27;13.79;81.58
67862;DHT22;54665;51.462;6.698;2023-07-22T01:34:27;13.81;81.70
67862;DHT22;54665;51.462;6.698;2023-07-22T01:36:27;13.78;81.62
67862;DHT22;54665;51.462;6.698;2023-07-22T01:38:28;13.74;81.80
67862;DHT22;54665;51.462;6.698;2023-07-22T01:40:28;13.74;81.92
67862;DHT22;54665;51.462;6.698;2023-07-22T01:42:29;13.78;81.77
67862;DHT22;54665;51.462;6.698;2023-07-22T01:44:29;13.82;81.81
67862;DHT22;54665;51.462;6.698;2023-07-22T01:46:30;13.84;81.66
67862;DHT22;54665;51.462;6.698;2023-07-22T01:48:30;13.89;81.98
67862;DHT22;54665;51.462;6.698;2023-07-22T01:50:30;13.91;81.74
67862;DHT22;54665;51.462;6.698;2023-07-22T01:52:31;13.95;81.61
67862;DHT22;54665;51.462;6.698;2023-07-22T01:54:31;14.00;81.90
67862;DHT22;54665;51.462;6.698;2023-07-22T01:56:32;14.00;81.50
67862;DHT22;54665;51.462;6.698;2023-07-22T01:58:32;14.02;81.75
67862;DHT22;54665;51.462;6.698;2023-07-22T02:00:33;14.01;81.26
67862;DHT22;54665;51.462;6.698;2023-07-22T02:02:33;14.04;81.76
67862;DHT22;54665;51.462;6.698;2023-07-22T02:04:33;14.02;81.64
67862;DHT22;54665;51.462;6.698;2023-07-22T02:06:34;14.01;81.39
67862;DHT22;54665;51.462;6.698;2023-07-22T02:08:34;13.97;81.38
67862;DHT22;54665;51.462;6.698;2023-07-22T02:10:34;13.94;81.52
67862;DHT22;54665;51.462;6.698;2023-07-22T02:12:35;13.86;81.68
67862;DHT22;54665;51.462;6.698;2023-07-22T02:14:36;13.88;81.82
67862;DHT22;54665;51.462;6.698;2023-07-22T02:16:36;13.84;81.96
67862;DHT22;54665;51.462;6.698;2023-07-22T02:18:37;13.82;82.10
67862;DHT22;54665;51.462;6.698;2023-07-22T02:20:37;13.85;82.18
67862;DHT22;54665;51.462;6.698;2023-07-22T02:22:38;13.84;82.29
67862;DHT22;54665;51.462;6.698;2023-07-22T02:24:38;13.84;82.30
67862;DHT22;54665;51.462;6.698;2023-07-22T02:26:38;13.79;82.18
67862;DHT22;54665;51.462;6.698;2023-07-22T02:28:39;13.82;82.56
67862;DHT22;54665;51.462;6.698;2023-07-22T02:30:39;13.82;82.34
67862;DHT22;54665;51.462;6.698;2023-07-22T02:32:40;13.79;82.31
67862;DHT22;54665;51.462;6.698;2023-07-22T02:34:40;13.77;82.27
67862;DHT22;54665;51.462;6.698;2023-07-22T02:36:41;13.75;82.47
67862;DHT22;54665;51.462;6.698;2023-07-22T02:38:41;13.74;82.51
67862;DHT22;54665;51.462;6.698;2023-07-22T02:40:41;13.77;82.09
67862;DHT22;54665;51.462;6.698;2023-07-22T02:42:42;13.78;82.41
67862;DHT22;54665;51.462;6.698;2023-07-22T02:44:42;13.78;82.03
67862;DHT22;54665;51.462;6.698;2023-07-22T02:46:42;13.79;81.88
67862;DHT22;54665;51.462;6.698;2023-07-22T02:48:43;13.82;81.95
67862;DHT22;54665;51.462;6.698;2023-07-22T02:50:43;13.84;81.81
67862;DHT22;54665;51.462;6.698;2023-07-22T02:52:43;13.85;81.86
67862;DHT22;54665;51.462;6.698;2023-07-22T02:55:04;13.82;81.77
67862;DHT22;54665;51.462;6.698;2023-07-22T02:57:05;13.82;81.60
67862;DHT22;54665;51.462;6.698;2023-07-22T02:59:05;13.82;81.65
67862;DHT22;54665;51.462;6.698;2023-07-22T03:01:05;13.86;81.65
67862;DHT22;54665;51.462;6.698;2023-07-22T03:03:06;13.82;81.37
67862;DHT22;54665;51.462;6.698;2023-07-22T03:05:07;13.82;81.47
67862;DHT22;54665;51.462;6.698;2023-07-22T03:07:08;13.84;81.56
67862;DHT22;54665;51.462;6.698;2023-07-22T03:09:08;13.81;81.21
67862;DHT22;54665;51.462;6.698;2023-07-22T03:11:08;13.81;81.43
67862;DHT22;54665;51.462;6.698;2023-07-22T03:13:08;13.79;81.12
67862;DHT22;54665;51.462;6.698;2023-07-22T03:15:09;13.82;81.23
67862;DHT22;54665;51.462;6.698;2023-07-22T03:17:10;13.85;80.86
67862;DHT22;54665;51.462;6.698;2023-07-22T03:19:10;13.84;80.87
67862;DHT22;54665;51.462;6.698;2023-07-22T03:21:10;13.82;80.57
67862;DHT22;54665;51.462;6.698;2023-07-22T03:23:11;13.82;80.49
67862;DHT22;54665;51.462;6.698;2023-07-22T03:25:12;13.84;80.63
67862;DHT22;54665;51.462;6.698;2023-07-22T03:27:14;13.82;80.64
67862;DHT22;54665;51.462;6.698;2023-07-22T03:29:14;13.85;80.38
67862;DHT22;54665;51.462;6.698;2023-07-22T03:31:14;13.81;80.74
67862;DHT22;54665;51.462;6.698;2023-07-22T03:33:15;13.81;80.92
67862;DHT22;54665;51.462;6.698;2023-07-22T03:35:16;13.79;81.08
67862;DHT22;54665;51.462;6.698;2023-07-22T03:37:16;13.78;80.94
67862;DHT22;54665;51.462;6.698;2023-07-22T03:39:16;13.79;81.01
67862;DHT22;54665;51.462;6.698;2023-07-22T03:41:17;13.78;80.94
67862;DHT22;54665;51.462;6.698;2023-07-22T03:43:17;13.79;81.17
67862;DHT22;54665;51.462;6.698;2023-07-22T03:45:19;13.75;81.22
67862;DHT22;54665;51.462;6.698;2023-07-22T03:47:19;13.71;81.56
67862;DHT22;54665;51.462;6.698;2023-07-22T03:49:20;13.68;81.79
67862;DHT22;54665;51.462;6.698;2023-07-22T03:51:20;13.58;82.04
67862;DHT22;54665;51.462;6.698;2023-07-22T03:53:20;13.55;81.97
67862;DHT22;54665;51.462;6.698;2023-07-22T03:55:21;13.54;82.10
67862;DHT22;54665;51.462;6.698;2023-07-22T03:57:25;13.51;82.42
67862;DHT22;54665;51.462;6.698;2023-07-22T03:59:26;13.53;82.52
67862;DHT22;54665;51.462;6.698;2023-07-22T04:01:26;13.50;82.25
67862;DHT22;54665;51.462;6.698;2023-07-22T04:03:26;13.53;82.45
67862;DHT22;54665;51.462;6.698;2023-07-22T04:05:27;13.51;82.33
67862;DHT22;54665;51.462;6.698;2023-07-22T04:07:27;13.55;82.28
67862;DHT22;54665;51.462;6.698;2023-07-22T04:09:27;13.55;82.14
67862;DHT22;54665;51.462;6.698;2023-07-22T04:11:27;13.61;82.35
67862;DHT22;54665;51.462;6.698;2023-07-22T04:13:28;13.62;81.94
67862;DHT22;54665;51.462;6.698;2023-07-22T04:15:29;13.70;81.97
67862;DHT22;54665;51.462;6.698;2023-07-22T04:17:30;13.71;82.18
67862;DHT22;54665;51.462;6.698;2023-07-22T04:19:30;13.75;81.16
67862;DHT22;54665;51.462;6.698;2023-07-22T04:21:31;13.81;81.85
67862;DHT22;54665;51.462;6.698;2023-07-22T04:23:31;13.81;81.46
67862;DHT22;54665;51.462;6.698;2023-07-22T04:25:31;13.89;81.53
67862;DHT22;54665;51.462;6.698;2023-07-22T04:27:31;13.91;81.37
67862;DHT22;54665;51.462;6.698;2023-07-22T04:29:32;13.95;80.99
67862;DHT22;54665;51.462;6.698;2023-07-22T04:31:33;14.02;80.73
67862;DHT22;54665;51.462;6.698;2023-07-22T04:33:34;14.08;80.72
67862;DHT22;54665;51.462;6.698;2023-07-22T04:35:37;14.13;80.88
67862;DHT22;54665;51.462;6.698;2023-07-22T04:37:37;14.16;80.60
67862;DHT22;54665;51.462;6.698;2023-07-22T04:39:38;14.18;79.29
67862;DHT22;54665;51.462;6.698;2023-07-22T04:41:38;14.21;79.76
67862;DHT22;54665;51.462;6.698;2023-07-22T04:43:38;14.30;79.37
67862;DHT22;54665;51.462;6.698;2023-07-22T04:45:38;14.34;79.21
67862;DHT22;54665;51.462;6.698;2023-07-22T04:47:39;14.43;79.26
67862;DHT22;54665;51.462;6.698;2023-07-22T04:49:39;14.50;79.08
67862;DHT22;54665;51.462;6.698;2023-07-22T04:51:40;14.57;79.27
67862;DHT22;54665;51.462;6.698;2023-07-22T04:53:40;14.63;79.07
67862;DHT22;54665;51.462;6.698;2023-07-22T04:55:41;14.67;79.20
67862;DHT22;54665;51.462;6.698;2023-07-22T04:57:42;14.69;79.09
67862;DHT22;54665;51.462;6.698;2023-07-22T04:59:42;14.70;78.61
67862;DHT22;54665;51.462;6.698;2023-07-22T05:01:42;14.69;78.57
67862;DHT22;54665;51.462;6.698;2023-07-22T05:03:43;14.66;78.51
67862;DHT22;54665;51.462;6.698;2023-07-22T05:05:43;14.55;77.98
67862;DHT22;54665;51.462;6.698;2023-07-22T05:07:44;14.46;78.10
67862;DHT22;54665;51.462;6.698;2023-07-22T05:09:44;14.32;77.75
67862;DHT22;54665;51.462;6.698;2023-07-22T05:11:44;14.30;78.50
67862;DHT22;54665;51.462;6.698;2023-07-22T05:13:44;14.25;79.02
67862;DHT22;54665;51.462;6.698;2023-07-22T05:15:45;14.22;78.79
67862;DHT22;54665;51.462;6.698;2023-07-22T05:17:45;14.19;78.90
67862;DHT22;54665;51.462;6.698;2023-07-22T05:19:46;14.13;79.40
67862;DHT22;54665;51.462;6.698;2023-07-22T05:21:46;14.08;79.26
67862;DHT22;54665;51.462;6.698;2023-07-22T05:23:46;14.06;79.07
67862;DHT22;54665;51.462;6.698;2023-07-22T05:25:53;14.11;79.42
67862;DHT22;54665;51.462;6.698;2023-07-22T05:27:54;14.18;79.53
67862;DHT22;54665;51.462;6.698;2023-07-22T05:29:54;14.23;78.74
67862;DHT22;54665;51.462;6.698;2023-07-22T05:31:54;14.29;78.41
67862;DHT22;54665;51.462;6.698;2023-07-22T05:33:54;14.39;78.25
67862;DHT22;54665;51.462;6.698;2023-07-22T05:35:55;14.46;78.02
67862;DHT22;54665;51.462;6.698;2023-07-22T05:37:55;14.56;77.33
67862;DHT22;54665;51.462;6.698;2023-07-22T05:39:55;14.69;77.12
67862;DHT22;54665;51.462;6.698;2023-07-22T05:41:56;14.79;77.09
67862;DHT22;54665;51.462;6.698;2023-07-22T05:43:56;14.93;77.06
67862;DHT22;54665;51.462;6.698;2023-07-22T05:45:56;14.95;76.16
67862;DHT22;54665;51.462;6.698;2023-07-22T05:47:56;15.03;76.59
67862;DHT22;54665;51.462;6.698;2023-07-22T05:49:57;15.12;76.39
67862;DHT22;54665;51.462;6.698;2023-07-22T05:51:57;15.17;75.95
67862;DHT22;54665;51.462;6.698;2023-07-22T05:53:57;15.21;76.32
67862;DHT22;54665;51.462;6.698;2023-07-22T05:55:58;15.21;74.93
67862;DHT22;54665;51.462;6.698;2023-07-22T05:57:58;15.35;75.21
67862;DHT22;54665;51.462;6.698;2023-07-22T05:59:58;15.48;74.79
67862;DHT22;54665;51.462;6.698;2023-07-22T06:01:58;15.54;74.51
67862;DHT22;54665;51.462;6.698;2023-07-22T06:03:59;15.63;74.53
67862;DHT22;54665;51.462;6.698;2023-07-22T06:05:59;15.75;73.37
67862;DHT22;54665;51.462;6.698;2023-07-22T06:07:59;15.89;73.80
67862;DHT22;54665;51.462;6.698;2023-07-22T06:10:00;16.05;72.99
67862;DHT22;54665;51.462;6.698;2023-07-22T06:12:00;16.30;72.55
67862;DHT22;54665;51.462;6.698;2023-07-22T06:14:01;16.71;71.43
67862;DHT22;54665;51.462;6.698;2023-07-22T06:16:01;17.26;69.08
67862;DHT22;54665;51.462;6.698;2023-07-22T06:18:01;18.02;66.75
67862;DHT22;54665;51.462;6.698;2023-07-22T06:20:02;18.68;65.24
67862;DHT22;54665;51.462;6.698;2023-07-22T06:22:02;18.29;63.52
67862;DHT22;54665;51.462;6.698;2023-07-22T06:24:03;19.20;62.60
67862;DHT22;54665;51.462;6.698;2023-07-22T06:26:03;19.51;63.02
67862;DHT22;54665;51.462;6.698;2023-07-22T06:28:04;19.92;61.35
67862;DHT22;54665;51.462;6.698;2023-07-22T06:30:05;20.42;59.60
67862;DHT22;54665;51.462;6.698;2023-07-22T06:32:06;20.33;60.29
67862;DHT22;54665;51.462;6.698;2023-07-22T06:34:06;20.40;60.07
67862;DHT22;54665;51.462;6.698;2023-07-22T06:36:06;20.49;60.15
67862;DHT22;54665;51.462;6.698;2023-07-22T06:38:07;20.70;59.20
67862;DHT22;54665;51.462;6.698;2023-07-22T06:40:07;21.12;58.18
67862;DHT22;54665;51.462;6.698;2023-07-22T06:42:08;21.39;57.64
67862;DHT22;54665;51.462;6.698;2023-07-22T06:44:08;21.30;57.58
67862;DHT22;54665;51.462;6.698;2023-07-22T06:46:08;21.45;57.37
67862;DHT22;54665;51.462;6.698;2023-07-22T06:48:08;21.55;57.17
67862;DHT22;54665;51.462;6.698;2023-07-22T06:50:09;21.76;56.17
67862;DHT22;54665;51.462;6.698;2023-07-22T06:52:09;21.79;57.15
67862;DHT22;54665;51.462;6.698;2023-07-22T06:54:10;20.63;59.21
67862;DHT22;54665;51.462;6.698;2023-07-22T06:56:10;21.08;59.60
67862;DHT22;54665;51.462;6.698;2023-07-22T06:58:10;20.81;58.34
67862;DHT22;54665;51.462;6.698;2023-07-22T07:00:11;21.51;58.21
67862;DHT22;54665;51.462;6.698;2023-07-22T07:02:11;21.94;56.21
67862;DHT22;54665;51.462;6.698;2023-07-22T07:04:11;22.40;56.64
67862;DHT22;54665;51.462;6.698;2023-07-22T07:06:12;22.69;54.35
67862;DHT22;54665;51.462;6.698;2023-07-22T07:08:12;22.94;55.48
67862;DHT22;54665;51.462;6.698;2023-07-22T07:10:12;23.02;54.11
67862;DHT22;54665;51.462;6.698;2023-07-22T07:12:13;22.45;55.29
67862;DHT22;54665;51.462;6.698;2023-07-22T07:14:13;22.33;55.51
67862;DHT22;54665;51.462;6.698;2023-07-22T07:16:27;21.27;56.66
67862;DHT22;54665;51.462;6.698;2023-07-22T07:18:28;20.59;59.84
67862;DHT22;54665;51.462;6.698;2023-07-22T07:20:28;20.36;61.12
67862;DHT22;54665;51.462;6.698;2023-07-22T07:22:29;20.08;60.73
67862;DHT22;54665;51.462;6.698;2023-07-22T07:24:29;19.61;63.47
67862;DHT22;54665;51.462;6.698;2023-07-22T07:26:29;18.89;65.09
67862;DHT22;54665;51.462;6.698;2023-07-22T07:28:29;19.07;63.21
67862;DHT22;54665;51.462;6.698;2023-07-22T07:30:30;18.69;64.79
67862;DHT22;54665;51.462;6.698;2023-07-22T07:32:31;18.96;65.71
67862;DHT22;54665;51.462;6.698;2023-07-22T07:34:31;19.58;63.69
67862;DHT22;54665;51.462;6.698;2023-07-22T07:36:33;20.49;61.96
67862;DHT22;54665;51.462;6.698;2023-07-22T07:38:33;21.43;59.31
67862;DHT22;54665;51.462;6.698;2023-07-22T07:40:33;22.13;58.11
67862;DHT22;54665;51.462;6.698;2023-07-22T07:42:34;22.18;58.13
67862;DHT22;54665;51.462;6.698;2023-07-22T07:44:34;22.79;56.06
67862;DHT22;54665;51.462;6.698;2023-07-22T07:46:34;22.90;55.01
67862;DHT22;54665;51.462;6.698;2023-07-22T07:48:35;22.69;56.34
67862;DHT22;54665;51.462;6.698;2023-07-22T07:50:35;22.88;57.25
67862;DHT22;54665;51.462;6.698;2023-07-22T07:52:35;23.70;53.43
67862;DHT22;54665;51.462;6.698;2023-07-22T07:54:36;24.15;52.02
67862;DHT22;54665;51.462;6.698;2023-07-22T07:56:36;24.03;53.32
67862;DHT22;54665;51.462;6.698;2023-07-22T07:58:37;23.59;53.87
67862;DHT22;54665;51.462;6.698;2023-07-22T08:00:37;23.94;52.73
67862;DHT22;54665;51.462;6.698;2023-07-22T08:02:37;23.54;53.85
67862;DHT22;54665;51.462;6.698;2023-07-22T08:04:38;23.19;53.88
67862;DHT22;54665;51.462;6.698;2023-07-22T08:06:38;22.81;53.77
67862;DHT22;54665;51.462;6.698;2023-07-22T08:08:39;22.82;54.43
67862;DHT22;54665;51.462;6.698;2023-07-22T08:10:39;23.23;54.10
67862;DHT22;54665;51.462;6.698;2023-07-22T08:12:40;23.25;54.10
67862;DHT22;54665;51.462;6.698;2023-07-22T08:14:40;22.69;53.55
67862;DHT22;54665;51.462;6.698;2023-07-22T08:16:40;22.88;55.74
67862;DHT22;54665;51.462;6.698;2023-07-22T08:18:41;22.69;54.48
67862;DHT22;54665;51.462;6.698;2023-07-22T08:20:41;23.06;54.48
67862;DHT22;54665;51.462;6.698;2023-07-22T08:22:41;23.56;51.40
67862;DHT22;54665;51.462;6.698;2023-07-22T08:24:42;23.25;52.85
67862;DHT22;54665;51.462;6.698;2023-07-22T08:26:42;23.09;54.70
67862;DHT22;54665;51.462;6.698;2023-07-22T08:28:42;22.25;56.46
67862;DHT22;54665;51.462;6.698;2023-07-22T08:30:43;21.94;57.18
67862;DHT22;54665;51.462;6.698;2023-07-22T08:32:43;21.90;57.97
67862;DHT22;54665;51.462;6.698;2023-07-22T08:34:44;22.00;57.42
67862;DHT22;54665;51.462;6.698;2023-07-22T08:36:44;21.99;56.25
67862;DHT22;54665;51.462;6.698;2023-07-22T08:38:44;22.23;55.71
67862;DHT22;54665;51.462;6.698;2023-07-22T08:40:49;22.61;54.98
67862;DHT22;54665;51.462;6.698;2023-07-22T08:42:49;22.99;53.97
67862;DHT22;54665;51.462;6.698;2023-07-22T08:44:54;23.54;53.14
67862;DHT22;54665;51.462;6.698;2023-07-22T08:46:58;23.63;52.76
67862;DHT22;54665;51.462;6.698;2023-07-22T08:49:00;23.50;51.39
67862;DHT22;54665;51.462;6.698;2023-07-22T08:51:15;23.19;52.35
67862;DHT22;54665;51.462;6.698;2023-07-22T08:53:17;22.37;55.43
67862;DHT22;54665;51.462;6.698;2023-07-22T08:55:18;21.61;56.10
67862;DHT22;54665;51.462;6.698;2023-07-22T08:57:19;21.25;56.60
67862;DHT22;54665;51.462;6.698;2023-07-22T08:59:20;21.67;55.73
67862;DHT22;54665;51.462;6.698;2023-07-22T09:01:21;21.49;58.48
67862;DHT22;54665;51.462;6.698;2023-07-22T09:03:21;21.63;56.77
67862;DHT22;54665;51.462;6.698;2023-07-22T09:05:22;21.78;57.80
67862;DHT22;54665;51.462;6.698;2023-07-22T09:07:23;22.23;56.10
67862;DHT22;54665;51.462;6.698;2023-07-22T09:09:24;22.67;56.11
67862;DHT22;54665;51.462;6.698;2023-07-22T09:11:25;23.35;53.86
67862;DHT22;54665;51.462;6.698;2023-07-22T09:13:26;23.23;53.03
67862;DHT22;54665;51.462;6.698;2023-07-22T09:15:27;23.92;50.80
67862;DHT22;54665;51.462;6.698;2023-07-22T09:17:28;24.29;52.08
67862;DHT22;54665;51.462;6.698;2023-07-22T09:19:29;24.85;49.56
67862;DHT22;54665;51.462;6.698;2023-07-22T09:21:30;24.41;50.54
67862;DHT22;54665;51.462;6.698;2023-07-22T09:23:34;23.81;52.11
67862;DHT22;54665;51.462;6.698;2023-07-22T09:25:34;23.62;51.41
67862;DHT22;54665;51.462;6.698;2023-07-22T09:27:35;23.01;52.03
67862;DHT22;54665;51.462;6.698;2023-07-22T09:29:37;22.51;53.14
67862;DHT22;54665;51.462;6.698;2023-07-22T09:31:49;22.44;54.07
67862;DHT22;54665;51.462;6.698;2023-07-22T09:33:49;22.03;53.95
67862;DHT22;54665;51.462;6.698;2023-07-22T09:35:50;22.18;54.72
67862;DHT22;54665;51.462;6.698;2023-07-22T09:37:50;21.18;57.21
67862;DHT22;54665;51.462;6.698;2023-07-22T09:39:50;21.55;56.29
67862;DHT22;54665;51.462;6.698;2023-07-22T09:41:51;21.90;55.99
67862;DHT22;54665;51.462;6.698;2023-07-22T09:43:51;22.34;54.94
67862;DHT22;54665;51.462;6.698;2023-07-22T09:45:52;23.09;53.57
67862;DHT22;54665;51.462;6.698;2023-07-22T09:47:53;22.50;52.52
67862;DHT22;54665;51.462;6.698;2023-07-22T09:49:54;22.58;54.40
67862;DHT22;54665;51.462;6.698;2023-07-22T09:51:54;22.43;53.33
67862;DHT22;54665;51.462;6.698;2023-07-22T09:54:02;22.20;55.00
67862;DHT22;54665;51.462;6.698;2023-07-22T09:56:03;22.57;53.35
67862;DHT22;54665;51.462;6.698;2023-07-22T09:58:04;22.95;53.54
67862;DHT22;54665;51.462;6.698;2023-07-22T10:00:05;22.29;54.11
67862;DHT22;54665;51.462;6.698;2023-07-22T10:02:12;22.17;54.56
67862;DHT22;54665;51.462;6.698;2023-07-22T10:04:15;22.74;53.09
67862;DHT22;54665;51.462;6.698;2023-07-22T10:06:16;22.81;54.33
67862;DHT22;54665;51.462;6.698;2023-07-22T10:08:18;22.64;52.74
67862;DHT22;54665;51.462;6.698;2023-07-22T10:10:20;22.68;53.55
67862;DHT22;54665;51.462;6.698;2023-07-22T10:12:21;23.04;51.88
67862;DHT22;54665;51.462;6.698;2023-07-22T10:14:22;23.19;52.85
67862;DHT22;54665;51.462;6.698;2023-07-22T10:16:24;23.47;51.64
67862;DHT22;54665;51.462;6.698;2023-07-22T10:18:25;22.75;52.77
67862;DHT22;54665;51.462;6.698;2023-07-22T10:20:25;23.33;52.13
67862;DHT22;54665;51.462;6.698;2023-07-22T10:22:27;23.62;50.36
67862;DHT22;54665;51.462;6.698;2023-07-22T10:24:28;24.03;51.19
67862;DHT22;54665;51.462;6.698;2023-07-22T10:26:29;23.87;50.86
67862;DHT22;54665;51.462;6.698;2023-07-22T10:28:29;24.04;52.26
67862;DHT22;54665;51.462;6.698;2023-07-22T10:30:29;24.71;49.11
67862;DHT22;54665;51.462;6.698;2023-07-22T10:32:35;25.36;48.94
67862;DHT22;54665;51.462;6.698;2023-07-22T10:34:35;25.85;48.01
67862;DHT22;54665;51.462;6.698;2023-07-22T10:36:36;25.74;44.63
67862;DHT22;54665;51.462;6.698;2023-07-22T10:38:37;25.75;46.56
67862;DHT22;54665;51.462;6.698;2023-07-22T10:40:47;24.80;47.14
67862;DHT22;54665;51.462;6.698;2023-07-22T10:43:00;24.10;49.07
67862;DHT22;54665;51.462;6.698;2023-07-22T10:45:23;24.65;47.65
67862;DHT22;54665;51.462;6.698;2023-07-22T10:47:34;23.94;46.83
67862;DHT22;54665;51.462;6.698;2023-07-22T10:49:48;24.21;49.51
67862;DHT22;54665;51.462;6.698;2023-07-22T10:51:50;24.49;48.03
67862;DHT22;54665;51.462;6.698;2023-07-22T10:53:51;25.33;47.48
67862;DHT22;54665;51.462;6.698;2023-07-22T10:58:04;25.97;47.77
67862;DHT22;54665;51.462;6.698;2023-07-22T11:00:05;25.85;47.19
67862;DHT22;54665;51.462;6.698;2023-07-22T11:02:07;25.58;47.45
67862;DHT22;54665;51.462;6.698;2023-07-22T11:06:17;26.32;45.37
67862;DHT22;54665;51.462;6.698;2023-07-22T11:08:40;25.74;46.55
67862;DHT22;54665;51.462;6.698;2023-07-22T11:10:52;26.75;43.66
67862;DHT22;54665;51.462;6.698;2023-07-22T11:12:53;27.34;45.58
67862;DHT22;54665;51.462;6.698;2023-07-22T11:15:02;26.49;42.32
67862;DHT22;54665;51.462;6.698;2023-07-22T11:17:04;25.82;44.53
67862;DHT22;54665;51.462;6.698;2023-07-22T11:19:05;25.54;44.23
67862;DHT22;54665;51.462;6.698;2023-07-22T11:21:10;24.95;45.89
67862;DHT22;54665;51.462;6.698;2023-07-22T11:23:11;25.24;46.23
67862;DHT22;54665;51.462;6.698;2023-07-22T11:25:17;25.20;48.01
67862;DHT22;54665;51.462;6.698;2023-07-22T11:27:17;25.73;46.08
67862;DHT22;54665;51.462;6.698;2023-07-22T11:29:18;25.44;47.43
67862;DHT22;54665;51.462;6.698;2023-07-22T11:31:18;24.54;47.61
67862;DHT22;54665;51.462;6.698;2023-07-22T11:33:18;24.07;47.38
67862;DHT22;54665;51.462;6.698;2023-07-22T11:35:19;24.36;49.32
67862;DHT22;54665;51.462;6.698;2023-07-22T11:37:19;23.38;50.37
67862;DHT22;54665;51.462;6.698;2023-07-22T11:39:21;23.93;50.20
67862;DHT22;54665;51.462;6.698;2023-07-22T11:41:24;24.93;47.76
67862;DHT22;54665;51.462;6.698;2023-07-22T11:43:24;25.74;44.87
67862;DHT22;54665;51.462;6.698;2023-07-22T11:45:25;24.83;46.63
67862;DHT22;54665;51.462;6.698;2023-07-22T11:47:29;25.23;48.50
67862;DHT22;54665;51.462;6.698;2023-07-22T11:49:31;24.83;47.22
67862;DHT22;54665;51.462;6.698;2023-07-22T11:51:32;24.65;49.34
67862;DHT22;54665;51.462;6.698;2023-07-22T11:53:33;23.62;47.72
67862;DHT22;54665;51.462;6.698;2023-07-22T11:55:35;24.11;47.19
67862;DHT22;54665;51.462;6.698;2023-07-22T11:57:35;24.59;45.74
67862;DHT22;54665;51.462;6.698;2023-07-22T11:59:38;24.25;47.82
67862;DHT22;54665;51.462;6.698;2023-07-22T12:01:38;24.82;47.14
67862;DHT22;54665;51.462;6.698;2023-07-22T12:03:39;25.12;45.04
67862;DHT22;54665;51.462;6.698;2023-07-22T12:05:39;25.30;42.84
67862;DHT22;54665;51.462;6.698;2023-07-22T12:07:40;25.06;42.74
67862;DHT22;54665;51.462;6.698;2023-07-22T12:09:40;25.12;42.99
67862;DHT22;54665;51.462;6.698;2023-07-22T12:11:40;24.71;45.01
67862;DHT22;54665;51.462;6.698;2023-07-22T12:13:41;24.03;45.91
67862;DHT22;54665;51.462;6.698;2023-07-22T12:15:41;23.73;45.49
67862;DHT22;54665;51.462;6.698;2023-07-22T12:17:58;23.59;47.11
67862;DHT22;54665;51.462;6.698;2023-07-22T12:19:59;24.73;45.98
67862;DHT22;54665;51.462;6.698;2023-07-22T12:21:59;25.38;47.85
67862;DHT22;54665;51.462;6.698;2023-07-22T12:24:00;24.82;44.61
67862;DHT22;54665;51.462;6.698;2023-07-22T12:26:00;24.64;44.99
67862;DHT22;54665;51.462;6.698;2023-07-22T12:28:00;24.87;46.24
67862;DHT22;54665;51.462;6.698;2023-07-22T12:30:01;25.22;44.50
67862;DHT22;54665;51.462;6.698;2023-07-22T12:32:01;24.72;45.34
67862;DHT22;54665;51.462;6.698;2023-07-22T12:34:01;24.44;47.76
67862;DHT22;54665;51.462;6.698;2023-07-22T12:36:02;23.88;46.71
67862;DHT22;54665;51.462;6.698;2023-07-22T12:38:02;24.10;47.56
67862;DHT22;54665;51.462;6.698;2023-07-22T12:40:03;24.71;47.64
67862;DHT22;54665;51.462;6.698;2023-07-22T12:42:03;25.40;44.11
67862;DHT22;54665;51.462;6.698;2023-07-22T12:44:04;25.67;45.49
67862;DHT22;54665;51.462;6.698;2023-07-22T12:46:04;25.40;43.28
67862;DHT22;54665;51.462;6.698;2023-07-22T12:48:05;25.88;43.57
67862;DHT22;54665;51.462;6.698;2023-07-22T12:50:06;25.63;42.85